sensor_id;sensor_type;location;lat;lon;timestamp;pressure;altitude;pressure_sealevel;temperature;humidity
48041;BME280;33815;48.386;11.738;2023-06-14T00:01:09;96085.81;;;9.38;95.70
48041;BME280;33815;48.386;11.738;2023-06-14T00:03:34;96077.44;;;9.26;96.15
48041;BME280;33815;48.386;11.738;2023-06-14T00:06:00;96074.34;;;9.23;98.20
48041;BME280;33815;48.386;11.738;2023-06-14T00:08:25;96090.13;;;9.30;99.38
48041;BME280;33815;48.386;11.738;2023-06-14T00:10:51;96067.97;;;9.17;100.00
48041;BME280;33815;48.386;11.738;2023-06-14T00:13:16;96091.41;;;9.25;99.90
48041;BME280;33815;48.386;11.738;2023-06-14T00:15:41;96079.50;;;9.15;99.94
48041;BME280;33815;48.386;11.738;2023-06-14T00:18:07;96069.69;;;9.08;100.00
48041;BME280;33815;48.386;11.738;2023-06-14T00:20:34;96074.91;;;9.08;100.00
48041;BME280;33815;48.386;11.738;2023-06-14T00:23:00;96079.94;;;9.10;100.00
48041;BME280;33815;48.386;11.738;2023-06-14T00:25:26;96079.28;;;9.08;100.00
48041;BME280;33815;48.386;11.738;2023-06-14T00:27:52;96065.72;;;8.96;100.00
48041;BME280;33815;48.386;11.738;2023-06-14T00:30:17;96080.03;;;9.00;100.00
48041;BME280;33815;48.386;11.738;2023-06-14T00:32:43;96069.09;;;8.88;100.00
48041;BME280;33815;48.386;11.738;2023-06-14T00:35:09;96069.91;;;8.89;100.00
48041;BME280;33815;48.386;11.738;2023-06-14T00:37:35;96063.03;;;8.80;100.00
48041;BME280;33815;48.386;11.738;2023-06-14T00:40:00;96077.47;;;8.82;100.00
48041;BME280;33815;48.386;11.738;2023-06-14T00:42:26;96078.47;;;8.81;100.00
48041;BME280;33815;48.386;11.738;2023-06-14T00:44:52;96072.59;;;8.79;100.00
48041;BME280;33815;48.386;11.738;2023-06-14T00:47:18;96073.72;;;8.77;100.00
48041;BME280;33815;48.386;11.738;2023-06-14T00:49:45;96068.66;;;8.75;100.00
48041;BME280;33815;48.386;11.738;2023-06-14T00:52:11;96052.66;;;8.62;100.00
48041;BME280;33815;48.386;11.738;2023-06-14T00:54:37;96067.34;;;8.71;100.00
48041;BME280;33815;48.386;11.738;2023-06-14T00:57:03;96067.78;;;8.66;100.00
48041;BME280;33815;48.386;11.738;2023-06-14T00:59:28;96072.63;;;8.61;100.00
48041;BME280;33815;48.386;11.738;2023-06-14T01:01:55;96037.81;;;8.36;100.00
48041;BME280;33815;48.386;11.738;2023-06-14T01:04:20;96068.19;;;8.53;100.00
48041;BME280;33815;48.386;11.738;2023-06-14T01:07:01;96053.47;;;8.44;100.00
48041;BME280;33815;48.386;11.738;2023-06-14T01:09:38;96067.66;;;8.50;100.00
48041;BME280;33815;48.386;11.738;2023-06-14T01:12:14;96068.25;;;8.44;100.00
48041;BME280;33815;48.386;11.738;2023-06-14T01:14:41;96063.13;;;8.34;100.00
48041;BME280;33815;48.386;11.738;2023-06-14T01:17:07;96052.50;;;8.27;100.00
48041;BME280;33815;48.386;11.738;2023-06-14T01:19:41;96069.97;;;8.35;100.00
48041;BME280;33815;48.386;11.738;2023-06-14T01:22:08;96068.47;;;8.32;100.00
48041;BME280;33815;48.386;11.738;2023-06-14T01:24:34;96046.97;;;8.22;100.00
48041;BME280;33815;48.386;11.738;2023-06-14T01:27:00;96065.56;;;8.35;100.00
48041;BME280;33815;48.386;11.738;2023-06-14T01:29:27;96042.28;;;8.26;100.00
48041;BME280;33815;48.386;11.738;2023-06-14T01:31:57;96057.41;;;8.30;100.00
48041;BME280;33815;48.386;11.738;2023-06-14T01:34:23;96058.53;;;8.28;100.00
48041;BME280;33815;48.386;11.738;2023-06-14T01:36:49;96050.22;;;8.24;100.00
48041;BME280;33815;48.386;11.738;2023-06-14T01:39:16;96057.47;;;8.20;100.00
48041;BME280;33815;48.386;11.738;2023-06-14T01:41:43;96060.38;;;8.17;100.00
48041;BME280;33815;48.386;11.738;2023-06-14T01:44:09;96061.47;;;8.15;100.00
48041;BME280;33815;48.386;11.738;2023-06-14T01:46:36;96047.22;;;8.01;100.00
48041;BME280;33815;48.386;11.738;2023-06-14T01:49:01;96060.44;;;8.07;100.00
48041;BME280;33815;48.386;11.738;2023-06-14T01:51:27;96053.09;;;8.03;100.00
48041;BME280;33815;48.386;11.738;2023-06-14T01:53:52;96054.22;;;8.00;100.00
48041;BME280;33815;48.386;11.738;2023-06-14T01:56:18;96046.34;;;7.92;100.00
48041;BME280;33815;48.386;11.738;2023-06-14T01:58:43;96064.09;;;7.97;100.00
48041;BME280;33815;48.386;11.738;2023-06-14T02:01:08;96066.78;;;7.95;100.00
48041;BME280;33815;48.386;11.738;2023-06-14T02:03:34;96062.88;;;7.91;100.00
48041;BME280;33815;48.386;11.738;2023-06-14T02:05:59;96061.41;;;7.88;100.00
48041;BME280;33815;48.386;11.738;2023-06-14T02:08:24;96068.34;;;7.88;100.00
48041;BME280;33815;48.386;11.738;2023-06-14T02:10:50;96063.44;;;7.85;100.00
48041;BME280;33815;48.386;11.738;2023-06-14T02:13:15;96055.00;;;7.83;100.00
48041;BME280;33815;48.386;11.738;2023-06-14T02:15:40;96059.38;;;7.82;100.00
48041;BME280;33815;48.386;11.738;2023-06-14T02:18:09;96054.31;;;7.81;100.00
48041;BME280;33815;48.386;11.738;2023-06-14T02:20:35;96051.06;;;7.79;100.00
48041;BME280;33815;48.386;11.738;2023-06-14T02:23:00;96055.00;;;7.83;100.00
48041;BME280;33815;48.386;11.738;2023-06-14T02:25:26;96057.88;;;7.80;100.00
48041;BME280;33815;48.386;11.738;2023-06-14T02:27:53;96044.69;;;7.73;100.00
48041;BME280;33815;48.386;11.738;2023-06-14T02:30:18;96047.13;;;7.75;100.00
48041;BME280;33815;48.386;11.738;2023-06-14T02:32:44;96049.72;;;7.75;100.00
48041;BME280;33815;48.386;11.738;2023-06-14T02:35:10;96050.53;;;7.75;100.00
48041;BME280;33815;48.386;11.738;2023-06-14T02:37:35;96050.97;;;7.70;100.00
48041;BME280;33815;48.386;11.738;2023-06-14T02:40:00;96068.41;;;7.78;100.00
48041;BME280;33815;48.386;11.738;2023-06-14T02:42:26;96062.03;;;7.72;100.00
48041;BME280;33815;48.386;11.738;2023-06-14T02:44:51;96073.22;;;7.73;100.00
48041;BME280;33815;48.386;11.738;2023-06-14T02:47:17;96071.28;;;7.75;100.00
48041;BME280;33815;48.386;11.738;2023-06-14T02:49:43;96068.03;;;7.73;100.00
48041;BME280;33815;48.386;11.738;2023-06-14T02:52:08;96052.22;;;7.66;100.00
48041;BME280;33815;48.386;11.738;2023-06-14T02:54:34;96061.34;;;7.70;100.00
48041;BME280;33815;48.386;11.738;2023-06-14T02:56:59;96070.78;;;7.71;100.00
48041;BME280;33815;48.386;11.738;2023-06-14T02:59:24;96063.13;;;7.70;100.00
48041;BME280;33815;48.386;11.738;2023-06-14T03:01:50;96074.63;;;7.67;100.00
48041;BME280;33815;48.386;11.738;2023-06-14T03:04:15;96068.31;;;7.70;100.00
48041;BME280;33815;48.386;11.738;2023-06-14T03:06:41;96059.31;;;7.64;100.00
48041;BME280;33815;48.386;11.738;2023-06-14T03:09:09;96073.88;;;7.75;100.00
48041;BME280;33815;48.386;11.738;2023-06-14T03:11:34;96063.34;;;7.77;100.00
48041;BME280;33815;48.386;11.738;2023-06-14T03:14:00;96059.06;;;7.67;100.00
48041;BME280;33815;48.386;11.738;2023-06-14T03:16:26;96071.97;;;7.77;100.00
48041;BME280;33815;48.386;11.738;2023-06-14T03:18:55;96063.75;;;7.82;100.00
48041;BME280;33815;48.386;11.738;2023-06-14T03:21:20;96075.91;;;7.81;100.00
48041;BME280;33815;48.386;11.738;2023-06-14T03:23:46;96069.91;;;7.81;100.00
48041;BME280;33815;48.386;11.738;2023-06-14T03:26:12;96072.09;;;7.76;100.00
48041;BME280;33815;48.386;11.738;2023-06-14T03:28:43;96072.63;;;7.79;100.00
48041;BME280;33815;48.386;11.738;2023-06-14T03:31:08;96080.28;;;7.81;100.00
48041;BME280;33815;48.386;11.738;2023-06-14T03:33:34;96071.00;;;7.78;100.00
48041;BME280;33815;48.386;11.738;2023-06-14T03:35:59;96079.47;;;7.80;100.00
48041;BME280;33815;48.386;11.738;2023-06-14T03:38:25;96082.72;;;7.82;100.00
48041;BME280;33815;48.386;11.738;2023-06-14T03:40:50;96079.75;;;7.77;100.00
48041;BME280;33815;48.386;11.738;2023-06-14T03:43:15;96092.00;;;7.85;100.00
48041;BME280;33815;48.386;11.738;2023-06-14T03:45:40;96090.34;;;7.84;100.00
48041;BME280;33815;48.386;11.738;2023-06-14T03:48:06;96096.88;;;7.88;100.00
48041;BME280;33815;48.386;11.738;2023-06-14T03:50:33;96098.22;;;7.92;100.00
48041;BME280;33815;48.386;11.738;2023-06-14T03:52:58;96105.72;;;7.95;100.00
48041;BME280;33815;48.386;11.738;2023-06-14T03:55:24;96083.50;;;7.93;100.00
48041;BME280;33815;48.386;11.738;2023-06-14T03:57:51;96092.84;;;8.03;100.00
48041;BME280;33815;48.386;11.738;2023-06-14T04:00:17;96106.34;;;8.07;100.00
48041;BME280;33815;48.386;11.738;2023-06-14T04:02:43;96107.69;;;8.11;100.00
48041;BME280;33815;48.386;11.738;2023-06-14T04:05:09;96116.13;;;8.13;100.00
48041;BME280;33815;48.386;11.738;2023-06-14T04:07:34;96103.31;;;8.12;100.00
48041;BME280;33815;48.386;11.738;2023-06-14T04:10:06;96107.41;;;8.14;100.00
48041;BME280;33815;48.386;11.738;2023-06-14T04:12:32;96099.59;;;8.14;100.00
48041;BME280;33815;48.386;11.738;2023-06-14T04:14:57;96093.81;;;8.20;100.00
48041;BME280;33815;48.386;11.738;2023-06-14T04:17:22;96116.53;;;8.36;100.00
48041;BME280;33815;48.386;11.738;2023-06-14T04:19:48;96119.78;;;8.38;100.00
48041;BME280;33815;48.386;11.738;2023-06-14T04:22:13;96112.16;;;8.37;100.00
48041;BME280;33815;48.386;11.738;2023-06-14T04:24:38;96128.88;;;8.52;100.00
48041;BME280;33815;48.386;11.738;2023-06-14T04:27:03;96123.53;;;8.54;100.00
48041;BME280;33815;48.386;11.738;2023-06-14T04:29:29;96120.66;;;8.57;100.00
48041;BME280;33815;48.386;11.738;2023-06-14T04:31:55;96133.44;;;8.68;100.00
48041;BME280;33815;48.386;11.738;2023-06-14T04:34:27;96138.16;;;8.73;100.00
48041;BME280;33815;48.386;11.738;2023-06-14T04:36:55;96141.00;;;8.80;100.00
48041;BME280;33815;48.386;11.738;2023-06-14T04:39:21;96142.66;;;8.89;100.00
48041;BME280;33815;48.386;11.738;2023-06-14T04:41:47;96142.72;;;8.97;100.00
48041;BME280;33815;48.386;11.738;2023-06-14T04:44:17;96146.06;;;9.07;100.00
48041;BME280;33815;48.386;11.738;2023-06-14T04:46:43;96150.34;;;9.17;100.00
48041;BME280;33815;48.386;11.738;2023-06-14T04:49:15;96154.34;;;9.29;100.00
48041;BME280;33815;48.386;11.738;2023-06-14T04:51:41;96149.75;;;9.49;100.00
48041;BME280;33815;48.386;11.738;2023-06-14T04:54:10;96135.63;;;9.52;100.00
48041;BME280;33815;48.386;11.738;2023-06-14T04:56:38;96155.13;;;9.82;100.00
48041;BME280;33815;48.386;11.738;2023-06-14T04:59:03;96133.47;;;9.82;100.00
48041;BME280;33815;48.386;11.738;2023-06-14T05:01:32;96147.06;;;10.02;98.18
48041;BME280;33815;48.386;11.738;2023-06-14T05:03:58;96157.72;;;10.25;96.46
48041;BME280;33815;48.386;11.738;2023-06-14T05:06:24;96143.72;;;10.26;95.96
48041;BME280;33815;48.386;11.738;2023-06-14T05:08:49;96141.50;;;10.39;92.00
48041;BME280;33815;48.386;11.738;2023-06-14T05:11:14;96155.69;;;10.61;92.13
48041;BME280;33815;48.386;11.738;2023-06-14T05:13:42;96161.09;;;10.68;92.96
48041;BME280;33815;48.386;11.738;2023-06-14T05:16:07;96140.06;;;10.61;93.43
48041;BME280;33815;48.386;11.738;2023-06-14T05:18:32;96158.50;;;10.85;92.71
48041;BME280;33815;48.386;11.738;2023-06-14T05:20:59;96160.28;;;11.01;90.12
48041;BME280;33815;48.386;11.738;2023-06-14T05:23:25;96163.25;;;11.14;86.66
48041;BME280;33815;48.386;11.738;2023-06-14T05:25:50;96166.00;;;11.21;89.06
48041;BME280;33815;48.386;11.738;2023-06-14T05:28:15;96159.31;;;11.26;89.35
48041;BME280;33815;48.386;11.738;2023-06-14T05:30:41;96167.63;;;11.38;87.23
48041;BME280;33815;48.386;11.738;2023-06-14T05:33:07;96161.09;;;11.42;86.53
48041;BME280;33815;48.386;11.738;2023-06-14T05:35:33;96172.81;;;11.55;84.99
48041;BME280;33815;48.386;11.738;2023-06-14T05:37:58;96177.31;;;11.77;83.09
48041;BME280;33815;48.386;11.738;2023-06-14T05:40:23;96178.28;;;11.85;83.02
48041;BME280;33815;48.386;11.738;2023-06-14T05:42:49;96179.56;;;11.97;83.44
48041;BME280;33815;48.386;11.738;2023-06-14T05:45:14;96172.19;;;12.00;81.52
48041;BME280;33815;48.386;11.738;2023-06-14T05:47:41;96175.28;;;12.12;80.19
48041;BME280;33815;48.386;11.738;2023-06-14T05:50:06;96186.97;;;12.25;80.43
48041;BME280;33815;48.386;11.738;2023-06-14T05:52:32;96183.84;;;12.29;80.05
48041;BME280;33815;48.386;11.738;2023-06-14T05:54:57;96179.34;;;12.46;76.90
48041;BME280;33815;48.386;11.738;2023-06-14T05:57:22;96177.00;;;12.60;76.64
48041;BME280;33815;48.386;11.738;2023-06-14T05:59:47;96169.97;;;12.60;76.34
48041;BME280;33815;48.386;11.738;2023-06-14T06:02:13;96167.94;;;12.71;76.50
48041;BME280;33815;48.386;11.738;2023-06-14T06:04:38;96172.94;;;13.03;72.14
48041;BME280;33815;48.386;11.738;2023-06-14T06:07:03;96157.31;;;12.95;72.69
48041;BME280;33815;48.386;11.738;2023-06-14T06:09:29;96172.09;;;13.03;72.50
48041;BME280;33815;48.386;11.738;2023-06-14T06:11:54;96169.44;;;13.11;76.43
48041;BME280;33815;48.386;11.738;2023-06-14T06:14:20;96195.47;;;13.28;72.18
48041;BME280;33815;48.386;11.738;2023-06-14T06:16:45;96157.81;;;13.14;71.71
48041;BME280;33815;48.386;11.738;2023-06-14T06:19:10;96194.47;;;13.52;69.96
48041;BME280;33815;48.386;11.738;2023-06-14T06:21:35;96185.63;;;13.53;71.08
48041;BME280;33815;48.386;11.738;2023-06-14T06:24:01;96188.59;;;13.50;70.92
48041;BME280;33815;48.386;11.738;2023-06-14T06:26:28;96190.78;;;13.61;72.01
48041;BME280;33815;48.386;11.738;2023-06-14T06:28:53;96183.22;;;13.81;70.63
48041;BME280;33815;48.386;11.738;2023-06-14T06:31:19;96197.19;;;13.88;70.82
48041;BME280;33815;48.386;11.738;2023-06-14T06:33:45;96188.91;;;14.00;71.99
48041;BME280;33815;48.386;11.738;2023-06-14T06:36:10;96196.56;;;14.16;72.76
48041;BME280;33815;48.386;11.738;2023-06-14T06:38:35;96196.84;;;14.21;71.58
48041;BME280;33815;48.386;11.738;2023-06-14T06:41:01;96192.13;;;14.32;70.54
48041;BME280;33815;48.386;11.738;2023-06-14T06:43:26;96189.66;;;14.45;68.75
48041;BME280;33815;48.386;11.738;2023-06-14T06:45:51;96189.81;;;14.59;68.06
48041;BME280;33815;48.386;11.738;2023-06-14T06:48:17;96199.41;;;14.66;68.27
48041;BME280;33815;48.386;11.738;2023-06-14T06:50:42;96192.50;;;15.02;65.77
48041;BME280;33815;48.386;11.738;2023-06-14T06:53:07;96190.63;;;14.96;66.47
48041;BME280;33815;48.386;11.738;2023-06-14T06:55:33;96194.09;;;15.24;66.24
48041;BME280;33815;48.386;11.738;2023-06-14T06:57:58;96205.13;;;15.35;67.65
48041;BME280;33815;48.386;11.738;2023-06-14T07:00:24;96209.53;;;15.56;65.34
48041;BME280;33815;48.386;11.738;2023-06-14T07:02:50;96194.16;;;15.81;61.26
48041;BME280;33815;48.386;11.738;2023-06-14T07:05:16;96196.66;;;15.89;61.02
48041;BME280;33815;48.386;11.738;2023-06-14T07:07:41;96203.41;;;15.77;63.04
48041;BME280;33815;48.386;11.738;2023-06-14T07:10:07;96208.47;;;16.07;63.24
48041;BME280;33815;48.386;11.738;2023-06-14T07:12:32;96208.53;;;16.20;59.62
48041;BME280;33815;48.386;11.738;2023-06-14T07:14:59;96203.19;;;16.49;57.13
48041;BME280;33815;48.386;11.738;2023-06-14T07:17:25;96194.59;;;16.26;57.88
48041;BME280;33815;48.386;11.738;2023-06-14T07:19:50;96202.94;;;16.30;59.84
48041;BME280;33815;48.386;11.738;2023-06-14T07:22:16;96208.38;;;16.29;61.15
48041;BME280;33815;48.386;11.738;2023-06-14T07:24:41;96200.69;;;16.34;59.77
48041;BME280;33815;48.386;11.738;2023-06-14T07:27:07;96212.25;;;16.39;59.53
48041;BME280;33815;48.386;11.738;2023-06-14T07:29:33;96209.56;;;16.74;59.94
48041;BME280;33815;48.386;11.738;2023-06-14T07:31:58;96207.00;;;17.01;57.75
48041;BME280;33815;48.386;11.738;2023-06-14T07:34:23;96210.66;;;17.07;58.95
48041;BME280;33815;48.386;11.738;2023-06-14T07:36:48;96209.03;;;17.12;59.06
48041;BME280;33815;48.386;11.738;2023-06-14T07:39:14;96216.75;;;17.21;59.59
48041;BME280;33815;48.386;11.738;2023-06-14T07:41:39;96215.16;;;17.40;56.94
48041;BME280;33815;48.386;11.738;2023-06-14T07:44:04;96210.06;;;17.25;58.21
48041;BME280;33815;48.386;11.738;2023-06-14T07:46:30;96208.25;;;17.39;57.13
48041;BME280;33815;48.386;11.738;2023-06-14T07:48:55;96211.91;;;17.58;56.06
48041;BME280;33815;48.386;11.738;2023-06-14T07:51:20;96218.00;;;17.52;58.09
48041;BME280;33815;48.386;11.738;2023-06-14T07:53:48;96216.38;;;17.51;57.37
48041;BME280;33815;48.386;11.738;2023-06-14T07:56:13;96214.31;;;17.86;56.46
48041;BME280;33815;48.386;11.738;2023-06-14T07:58:38;96191.19;;;18.08;53.86
48041;BME280;33815;48.386;11.738;2023-06-14T08:01:04;96206.59;;;18.18;56.85
48041;BME280;33815;48.386;11.738;2023-06-14T08:03:33;96223.25;;;18.64;55.82
48041;BME280;33815;48.386;11.738;2023-06-14T08:05:58;96208.28;;;18.96;53.41
48041;BME280;33815;48.386;11.738;2023-06-14T08:08:23;96211.19;;;19.20;52.01
48041;BME280;33815;48.386;11.738;2023-06-14T08:10:49;96191.16;;;19.63;49.12
48041;BME280;33815;48.386;11.738;2023-06-14T08:13:14;96193.94;;;19.93;48.88
48041;BME280;33815;48.386;11.738;2023-06-14T08:15:40;96207.97;;;19.94;50.04
48041;BME280;33815;48.386;11.738;2023-06-14T08:18:05;96201.91;;;20.12;48.20
48041;BME280;33815;48.386;11.738;2023-06-14T08:20:30;96188.38;;;20.20;48.89
48041;BME280;33815;48.386;11.738;2023-06-14T08:22:56;96210.06;;;20.29;46.54
48041;BME280;33815;48.386;11.738;2023-06-14T08:25:22;96205.78;;;20.28;48.90
48041;BME280;33815;48.386;11.738;2023-06-14T08:27:48;96205.41;;;20.06;49.62
48041;BME280;33815;48.386;11.738;2023-06-14T08:30:13;96222.78;;;20.20;50.34
48041;BME280;33815;48.386;11.738;2023-06-14T08:32:39;96208.94;;;20.74;49.11
48041;BME280;33815;48.386;11.738;2023-06-14T08:35:05;96193.16;;;21.99;44.69
48041;BME280;33815;48.386;11.738;2023-06-14T08:37:30;96196.06;;;22.50;44.82
48041;BME280;33815;48.386;11.738;2023-06-14T08:39:56;96192.66;;;23.24;41.79
48041;BME280;33815;48.386;11.738;2023-06-14T08:42:23;96194.63;;;24.19;42.38
48041;BME280;33815;48.386;11.738;2023-06-14T08:44:49;96190.94;;;25.19;38.35
48041;BME280;33815;48.386;11.738;2023-06-14T08:47:15;96189.56;;;25.11;39.65
48041;BME280;33815;48.386;11.738;2023-06-14T08:49:47;96187.31;;;25.57;39.60
48041;BME280;33815;48.386;11.738;2023-06-14T08:52:15;96184.25;;;25.43;36.19
48041;BME280;33815;48.386;11.738;2023-06-14T08:54:45;96188.81;;;25.48;37.04
48041;BME280;33815;48.386;11.738;2023-06-14T08:57:14;96187.38;;;26.05;35.59
48041;BME280;33815;48.386;11.738;2023-06-14T08:59:45;96193.06;;;25.81;35.70
48041;BME280;33815;48.386;11.738;2023-06-14T09:02:11;96180.09;;;26.00;35.60
48041;BME280;33815;48.386;11.738;2023-06-14T09:04:38;96195.88;;;25.05;35.32
48041;BME280;33815;48.386;11.738;2023-06-14T09:07:05;96192.97;;;24.79;36.48
48041;BME280;33815;48.386;11.738;2023-06-14T09:09:31;96188.75;;;24.83;38.28
48041;BME280;33815;48.386;11.738;2023-06-14T09:11:56;96194.59;;;24.80;37.47
48041;BME280;33815;48.386;11.738;2023-06-14T09:14:24;96185.16;;;24.28;35.31
48041;BME280;33815;48.386;11.738;2023-06-14T09:16:53;96200.00;;;24.24;37.57
48041;BME280;33815;48.386;11.738;2023-06-14T09:19:23;96196.31;;;24.47;36.35
48041;BME280;33815;48.386;11.738;2023-06-14T09:21:49;96194.91;;;24.39;35.26
48041;BME280;33815;48.386;11.738;2023-06-14T09:24:16;96189.97;;;24.97;32.98
48041;BME280;33815;48.386;11.738;2023-06-14T09:26:42;96194.22;;;24.71;34.35
48041;BME280;33815;48.386;11.738;2023-06-14T09:29:09;96193.00;;;24.84;31.65
48041;BME280;33815;48.386;11.738;2023-06-14T09:31:35;96203.44;;;25.13;34.51
48041;BME280;33815;48.386;11.738;2023-06-14T09:34:02;96205.75;;;25.04;33.95
48041;BME280;33815;48.386;11.738;2023-06-14T09:36:27;96206.63;;;25.10;32.68
48041;BME280;33815;48.386;11.738;2023-06-14T09:38:54;96207.66;;;24.82;34.05
48041;BME280;33815;48.386;11.738;2023-06-14T09:41:20;96222.28;;;25.06;35.89
48041;BME280;33815;48.386;11.738;2023-06-14T09:43:46;96219.69;;;25.11;35.64
48041;BME280;33815;48.386;11.738;2023-06-14T09:46:13;96199.44;;;24.88;35.14
48041;BME280;33815;48.386;11.738;2023-06-14T09:48:38;96207.53;;;25.21;34.84
48041;BME280;33815;48.386;11.738;2023-06-14T09:51:09;96212.50;;;25.39;34.42
48041;BME280;33815;48.386;11.738;2023-06-14T09:53:36;96208.66;;;25.30;34.56
48041;BME280;33815;48.386;11.738;2023-06-14T09:56:02;96210.13;;;24.88;31.85
48041;BME280;33815;48.386;11.738;2023-06-14T09:58:30;96206.41;;;24.67;32.11
48041;BME280;33815;48.386;11.738;2023-06-14T10:00:56;96223.03;;;24.52;35.59
48041;BME280;33815;48.386;11.738;2023-06-14T10:03:28;96216.09;;;24.73;35.46
48041;BME280;33815;48.386;11.738;2023-06-14T10:05:55;96212.56;;;24.68;33.52
48041;BME280;33815;48.386;11.738;2023-06-14T10:08:27;96233.28;;;24.60;36.31
48041;BME280;33815;48.386;11.738;2023-06-14T10:10:55;96231.47;;;24.66;36.05
48041;BME280;33815;48.386;11.738;2023-06-14T10:13:21;96227.56;;;24.74;35.17
48041;BME280;33815;48.386;11.738;2023-06-14T10:18:33;96216.97;;;24.79;33.36
48041;BME280;33815;48.386;11.738;2023-06-14T10:23:48;96202.53;;;25.02;36.34
48041;BME280;33815;48.386;11.738;2023-06-14T10:26:22;96199.91;;;25.07;33.75
48041;BME280;33815;48.386;11.738;2023-06-14T10:29:01;96209.97;;;25.55;33.03
48041;BME280;33815;48.386;11.738;2023-06-14T10:31:43;96203.31;;;25.30;33.39
48041;BME280;33815;48.386;11.738;2023-06-14T10:34:09;96209.09;;;25.81;36.38
48041;BME280;33815;48.386;11.738;2023-06-14T10:36:35;96190.34;;;25.71;34.14
48041;BME280;33815;48.386;11.738;2023-06-14T10:39:08;96211.53;;;25.51;35.90
48041;BME280;33815;48.386;11.738;2023-06-14T10:41:40;96201.69;;;25.56;35.10
48041;BME280;33815;48.386;11.738;2023-06-14T10:46:41;96186.44;;;24.92;34.81
48041;BME280;33815;48.386;11.738;2023-06-14T10:49:11;96201.81;;;24.40;36.38
48041;BME280;33815;48.386;11.738;2023-06-14T10:51:42;96203.72;;;23.84;37.69
48041;BME280;33815;48.386;11.738;2023-06-14T10:54:12;96204.53;;;23.67;38.74
48041;BME280;33815;48.386;11.738;2023-06-14T10:56:46;96213.22;;;24.58;38.75
48041;BME280;33815;48.386;11.738;2023-06-14T10:59:11;96178.00;;;25.65;33.13
48041;BME280;33815;48.386;11.738;2023-06-14T11:01:41;96187.00;;;25.96;34.87
48041;BME280;33815;48.386;11.738;2023-06-14T11:04:11;96187.28;;;26.43;32.07
48041;BME280;33815;48.386;11.738;2023-06-14T11:06:48;96171.66;;;26.82;29.45
48041;BME280;33815;48.386;11.738;2023-06-14T11:11:48;96176.88;;;25.98;30.92
48041;BME280;33815;48.386;11.738;2023-06-14T11:14:14;96188.84;;;24.93;32.36
48041;BME280;33815;48.386;11.738;2023-06-14T11:16:39;96193.47;;;24.54;34.33
48041;BME280;33815;48.386;11.738;2023-06-14T11:19:05;96188.19;;;24.15;34.67
48041;BME280;33815;48.386;11.738;2023-06-14T11:21:32;96203.00;;;23.88;34.55
48041;BME280;33815;48.386;11.738;2023-06-14T11:23:58;96192.44;;;23.93;35.11
48041;BME280;33815;48.386;11.738;2023-06-14T11:26:31;96195.34;;;23.92;38.87
48041;BME280;33815;48.386;11.738;2023-06-14T11:29:00;96200.66;;;23.75;37.70
48041;BME280;33815;48.386;11.738;2023-06-14T11:31:27;96200.66;;;23.58;38.31
48041;BME280;33815;48.386;11.738;2023-06-14T11:33:56;96208.31;;;23.54;38.47
48041;BME280;33815;48.386;11.738;2023-06-14T11:36:22;96212.09;;;23.24;38.00
48041;BME280;33815;48.386;11.738;2023-06-14T11:38:48;96192.53;;;23.02;35.12
48041;BME280;33815;48.386;11.738;2023-06-14T11:41:13;96197.22;;;23.12;39.10
48041;BME280;33815;48.386;11.738;2023-06-14T11:43:39;96200.44;;;24.38;36.94
48041;BME280;33815;48.386;11.738;2023-06-14T11:46:12;96196.22;;;25.13;36.47
48041;BME280;33815;48.386;11.738;2023-06-14T11:48:42;96174.19;;;25.51;33.62
48041;BME280;33815;48.386;11.738;2023-06-14T11:51:07;96182.59;;;25.75;32.70
48041;BME280;33815;48.386;11.738;2023-06-14T11:53:33;96170.41;;;25.46;33.41
48041;BME280;33815;48.386;11.738;2023-06-14T11:55:59;96158.22;;;25.28;31.68
48041;BME280;33815;48.386;11.738;2023-06-14T11:58:25;96158.16;;;25.51;31.76
48041;BME280;33815;48.386;11.738;2023-06-14T12:00:52;96166.00;;;26.05;34.95
48041;BME280;33815;48.386;11.738;2023-06-14T12:03:17;96155.78;;;26.60;30.70
48041;BME280;33815;48.386;11.738;2023-06-14T12:05:42;96171.69;;;26.19;31.31
48041;BME280;33815;48.386;11.738;2023-06-14T12:08:08;96177.38;;;25.20;32.98
48041;BME280;33815;48.386;11.738;2023-06-14T12:10:40;96189.97;;;24.70;34.78
48041;BME280;33815;48.386;11.738;2023-06-14T12:13:09;96185.91;;;24.23;36.29
48041;BME280;33815;48.386;11.738;2023-06-14T12:15:34;96181.22;;;23.74;34.93
48041;BME280;33815;48.386;11.738;2023-06-14T12:17:59;96172.94;;;23.54;36.63
48041;BME280;33815;48.386;11.738;2023-06-14T12:20:29;96167.56;;;24.05;34.96
48041;BME280;33815;48.386;11.738;2023-06-14T12:22:57;96182.06;;;24.80;36.01
48041;BME280;33815;48.386;11.738;2023-06-14T12:25:30;96166.31;;;25.71;34.61
48041;BME280;33815;48.386;11.738;2023-06-14T12:27:57;96162.38;;;26.32;29.69
48041;BME280;33815;48.386;11.738;2023-06-14T12:30:23;96150.81;;;26.90;32.01
48041;BME280;33815;48.386;11.738;2023-06-14T12:32:48;96163.41;;;27.72;30.80
48041;BME280;33815;48.386;11.738;2023-06-14T12:35:14;96150.28;;;27.80;28.55
48041;BME280;33815;48.386;11.738;2023-06-14T12:37:40;96152.41;;;27.99;28.70
48041;BME280;33815;48.386;11.738;2023-06-14T12:40:05;96154.41;;;28.33;26.32
48041;BME280;33815;48.386;11.738;2023-06-14T12:42:32;96147.56;;;28.71;27.83
48041;BME280;33815;48.386;11.738;2023-06-14T12:44:58;96134.78;;;28.98;25.38
48041;BME280;33815;48.386;11.738;2023-06-14T12:47:23;96143.13;;;28.41;27.47
48041;BME280;33815;48.386;11.738;2023-06-14T12:49:48;96143.97;;;28.31;27.26
48041;BME280;33815;48.386;11.738;2023-06-14T12:52:14;96138.19;;;27.93;25.65
48041;BME280;33815;48.386;11.738;2023-06-14T12:54:39;96154.25;;;26.70;27.51
48041;BME280;33815;48.386;11.738;2023-06-14T12:57:05;96159.59;;;26.75;29.47